sensor_id;sensor_type;location;lat;lon;timestamp;P1;durP1;ratioP1;P2;durP2;ratioP2
48034;SDS011;33812;46.480;6.834;2023-04-30T00:03:32;8.60;;;1.77;;
48034;SDS011;33812;46.480;6.834;2023-04-30T00:07:33;12.00;;;2.03;;
48034;SDS011;33812;46.480;6.834;2023-04-30T00:11:35;10.65;;;2.20;;
48034;SDS011;33812;46.480;6.834;2023-04-30T00:15:38;10.73;;;1.83;;
48034;SDS011;33812;46.480;6.834;2023-04-30T00:19:40;9.63;;;2.15;;
48034;SDS011;33812;46.480;6.834;2023-04-30T00:23:42;6.07;;;1.52;;
48034;SDS011;33812;46.480;6.834;2023-04-30T00:27:44;10.95;;;2.28;;
48034;SDS011;33812;46.480;6.834;2023-04-30T00:31:48;17.42;;;2.95;;
48034;SDS011;33812;46.480;6.834;2023-04-30T00:35:50;10.83;;;2.20;;
48034;SDS011;33812;46.480;6.834;2023-04-30T00:39:52;9.45;;;2.03;;
48034;SDS011;33812;46.480;6.834;2023-04-30T00:43:54;8.57;;;1.95;;
48034;SDS011;33812;46.480;6.834;2023-04-30T00:47:57;11.35;;;2.05;;
48034;SDS011;33812;46.480;6.834;2023-04-30T00:51:59;7.95;;;1.85;;
48034;SDS011;33812;46.480;6.834;2023-04-30T00:56:02;8.10;;;1.88;;
48034;SDS011;33812;46.480;6.834;2023-04-30T01:00:06;12.50;;;2.53;;
48034;SDS011;33812;46.480;6.834;2023-04-30T01:04:11;6.80;;;1.67;;
48034;SDS011;33812;46.480;6.834;2023-04-30T01:08:14;13.80;;;2.58;;
48034;SDS011;33812;46.480;6.834;2023-04-30T01:12:17;12.15;;;2.33;;
48034;SDS011;33812;46.480;6.834;2023-04-30T01:16:27;8.85;;;1.77;;
48034;SDS011;33812;46.480;6.834;2023-04-30T01:20:34;10.27;;;2.17;;
48034;SDS011;33812;46.480;6.834;2023-04-30T01:24:48;15.63;;;2.78;;
48034;SDS011;33812;46.480;6.834;2023-04-30T01:29:03;8.52;;;2.03;;
48034;SDS011;33812;46.480;6.834;2023-04-30T01:33:06;10.57;;;2.28;;
48034;SDS011;33812;46.480;6.834;2023-04-30T01:37:10;13.90;;;2.30;;
48034;SDS011;33812;46.480;6.834;2023-04-30T01:41:25;8.77;;;1.75;;
48034;SDS011;33812;46.480;6.834;2023-04-30T01:45:42;12.48;;;2.08;;
48034;SDS011;33812;46.480;6.834;2023-04-30T01:54:20;12.40;;;2.20;;
48034;SDS011;33812;46.480;6.834;2023-04-30T01:58:26;12.90;;;2.55;;
48034;SDS011;33812;46.480;6.834;2023-04-30T02:02:31;7.18;;;1.73;;
48034;SDS011;33812;46.480;6.834;2023-04-30T02:06:33;5.50;;;1.52;;
48034;SDS011;33812;46.480;6.834;2023-04-30T02:10:35;8.88;;;1.85;;
48034;SDS011;33812;46.480;6.834;2023-04-30T02:14:38;9.40;;;2.17;;
48034;SDS011;33812;46.480;6.834;2023-04-30T02:18:42;7.20;;;1.70;;
48034;SDS011;33812;46.480;6.834;2023-04-30T02:22:43;5.15;;;1.30;;
48034;SDS011;33812;46.480;6.834;2023-04-30T02:26:45;10.88;;;2.30;;
48034;SDS011;33812;46.480;6.834;2023-04-30T02:30:47;6.88;;;2.00;;
48034;SDS011;33812;46.480;6.834;2023-04-30T02:34:53;15.55;;;3.10;;
48034;SDS011;33812;46.480;6.834;2023-04-30T02:38:55;11.85;;;2.30;;
48034;SDS011;33812;46.480;6.834;2023-04-30T02:42:57;11.93;;;2.38;;
48034;SDS011;33812;46.480;6.834;2023-04-30T02:47:01;10.73;;;2.20;;
48034;SDS011;33812;46.480;6.834;2023-04-30T02:51:04;8.77;;;2.28;;
48034;SDS011;33812;46.480;6.834;2023-04-30T02:55:12;12.40;;;2.58;;
48034;SDS011;33812;46.480;6.834;2023-04-30T02:59:14;7.15;;;1.90;;
48034;SDS011;33812;46.480;6.834;2023-04-30T03:03:16;8.30;;;2.25;;
48034;SDS011;33812;46.480;6.834;2023-04-30T03:07:21;13.35;;;2.13;;
48034;SDS011;33812;46.480;6.834;2023-04-30T03:11:24;7.85;;;1.90;;
48034;SDS011;33812;46.480;6.834;2023-04-30T03:15:26;7.70;;;2.22;;
48034;SDS011;33812;46.480;6.834;2023-04-30T03:19:28;17.58;;;2.53;;
48034;SDS011;33812;46.480;6.834;2023-04-30T03:23:33;11.60;;;2.53;;
48034;SDS011;33812;46.480;6.834;2023-04-30T03:27:35;12.07;;;2.60;;
48034;SDS011;33812;46.480;6.834;2023-04-30T03:31:36;15.70;;;3.10;;
48034;SDS011;33812;46.480;6.834;2023-04-30T03:35:38;11.80;;;2.80;;
48034;SDS011;33812;46.480;6.834;2023-04-30T03:39:41;13.63;;;2.88;;
48034;SDS011;33812;46.480;6.834;2023-04-30T03:43:43;17.80;;;2.72;;
48034;SDS011;33812;46.480;6.834;2023-04-30T03:47:45;9.45;;;2.17;;
48034;SDS011;33812;46.480;6.834;2023-04-30T03:51:48;16.20;;;2.50;;
48034;SDS011;33812;46.480;6.834;2023-04-30T03:55:51;13.25;;;2.72;;
48034;SDS011;33812;46.480;6.834;2023-04-30T03:59:53;18.10;;;3.50;;
48034;SDS011;33812;46.480;6.834;2023-04-30T04:03:56;9.73;;;2.45;;
48034;SDS011;33812;46.480;6.834;2023-04-30T04:07:57;10.75;;;2.55;;
48034;SDS011;33812;46.480;6.834;2023-04-30T04:12:00;12.70;;;2.38;;
48034;SDS011;33812;46.480;6.834;2023-04-30T04:16:02;3.50;;;1.65;;
48034;SDS011;33812;46.480;6.834;2023-04-30T04:20:04;6.35;;;1.55;;
48034;SDS011;33812;46.480;6.834;2023-04-30T04:24:07;5.22;;;1.55;;
48034;SDS011;33812;46.480;6.834;2023-04-30T04:28:11;10.43;;;2.22;;
48034;SDS011;33812;46.480;6.834;2023-04-30T04:32:13;8.83;;;1.83;;
48034;SDS011;33812;46.480;6.834;2023-04-30T04:36:16;3.65;;;1.45;;
48034;SDS011;33812;46.480;6.834;2023-04-30T04:40:18;13.18;;;2.90;;
48034;SDS011;33812;46.480;6.834;2023-04-30T04:44:21;4.57;;;1.50;;
48034;SDS011;33812;46.480;6.834;2023-04-30T04:48:23;10.02;;;2.25;;
48034;SDS011;33812;46.480;6.834;2023-04-30T04:52:24;4.68;;;1.65;;
48034;SDS011;33812;46.480;6.834;2023-04-30T04:56:26;8.18;;;1.92;;
48034;SDS011;33812;46.480;6.834;2023-04-30T05:00:29;24.27;;;4.55;;
48034;SDS011;33812;46.480;6.834;2023-04-30T05:04:32;5.78;;;1.60;;
48034;SDS011;33812;46.480;6.834;2023-04-30T05:08:35;9.25;;;1.95;;
48034;SDS011;33812;46.480;6.834;2023-04-30T05:12:37;6.47;;;1.67;;
48034;SDS011;33812;46.480;6.834;2023-04-30T05:16:40;7.60;;;1.30;;
48034;SDS011;33812;46.480;6.834;2023-04-30T05:20:42;4.25;;;1.23;;
48034;SDS011;33812;46.480;6.834;2023-04-30T05:24:44;6.65;;;1.70;;
48034;SDS011;33812;46.480;6.834;2023-04-30T05:28:45;14.07;;;2.10;;
48034;SDS011;33812;46.480;6.834;2023-04-30T05:32:48;6.55;;;1.42;;
48034;SDS011;33812;46.480;6.834;2023-04-30T05:36:51;8.07;;;1.83;;
48034;SDS011;33812;46.480;6.834;2023-04-30T05:40:53;7.88;;;1.98;;
48034;SDS011;33812;46.480;6.834;2023-04-30T05:44:55;16.15;;;1.38;;
48034;SDS011;33812;46.480;6.834;2023-04-30T05:48:58;15.43;;;3.67;;
48034;SDS011;33812;46.480;6.834;2023-04-30T05:52:59;15.38;;;2.03;;
48034;SDS011;33812;46.480;6.834;2023-04-30T05:57:01;17.33;;;2.10;;
48034;SDS011;33812;46.480;6.834;2023-04-30T06:01:04;9.30;;;1.60;;
48034;SDS011;33812;46.480;6.834;2023-04-30T06:05:10;7.10;;;2.38;;
48034;SDS011;33812;46.480;6.834;2023-04-30T06:09:12;415.75;;;188.95;;
48034;SDS011;33812;46.480;6.834;2023-04-30T06:13:14;284.27;;;130.50;;
48034;SDS011;33812;46.480;6.834;2023-04-30T06:17:15;313.50;;;140.95;;
48034;SDS011;33812;46.480;6.834;2023-04-30T06:21:18;168.52;;;77.40;;
48034;SDS011;33812;46.480;6.834;2023-04-30T06:25:20;171.32;;;82.95;;
48034;SDS011;33812;46.480;6.834;2023-04-30T06:29:22;188.70;;;88.68;;
48034;SDS011;33812;46.480;6.834;2023-04-30T06:33:24;158.60;;;75.18;;
48034;SDS011;33812;46.480;6.834;2023-04-30T06:37:30;157.32;;;73.45;;
48034;SDS011;33812;46.480;6.834;2023-04-30T06:41:38;146.13;;;69.90;;
48034;SDS011;33812;46.480;6.834;2023-04-30T06:45:42;128.63;;;59.70;;
48034;SDS011;33812;46.480;6.834;2023-04-30T06:49:44;134.82;;;65.63;;
48034;SDS011;33812;46.480;6.834;2023-04-30T06:53:47;44.42;;;19.50;;
48034;SDS011;33812;46.480;6.834;2023-04-30T06:57:50;18.88;;;7.18;;
48034;SDS011;33812;46.480;6.834;2023-04-30T07:01:53;10.30;;;4.85;;
48034;SDS011;33812;46.480;6.834;2023-04-30T07:05:55;18.77;;;4.53;;
48034;SDS011;33812;46.480;6.834;2023-04-30T07:09:58;16.15;;;6.38;;
48034;SDS011;33812;46.480;6.834;2023-04-30T07:14:00;21.02;;;5.72;;
48034;SDS011;33812;46.480;6.834;2023-04-30T07:18:01;14.82;;;5.18;;
48034;SDS011;33812;46.480;6.834;2023-04-30T07:22:04;12.55;;;5.00;;
48034;SDS011;33812;46.480;6.834;2023-04-30T07:26:08;18.17;;;6.07;;
48034;SDS011;33812;46.480;6.834;2023-04-30T07:30:10;14.93;;;4.95;;
48034;SDS011;33812;46.480;6.834;2023-04-30T07:34:11;8.57;;;4.18;;
48034;SDS011;33812;46.480;6.834;2023-04-30T07:38:13;14.68;;;4.95;;
48034;SDS011;33812;46.480;6.834;2023-04-30T07:42:17;9.00;;;3.95;;
48034;SDS011;33812;46.480;6.834;2023-04-30T07:46:19;10.00;;;3.75;;
48034;SDS011;33812;46.480;6.834;2023-04-30T07:50:21;7.10;;;3.55;;
48034;SDS011;33812;46.480;6.834;2023-04-30T07:54:26;14.45;;;4.60;;
48034;SDS011;33812;46.480;6.834;2023-04-30T07:58:29;11.15;;;4.43;;
48034;SDS011;33812;46.480;6.834;2023-04-30T08:02:31;10.20;;;3.88;;
48034;SDS011;33812;46.480;6.834;2023-04-30T08:06:34;15.65;;;4.45;;
48034;SDS011;33812;46.480;6.834;2023-04-30T08:10:36;11.18;;;3.15;;
48034;SDS011;33812;46.480;6.834;2023-04-30T08:14:42;12.23;;;4.00;;
48034;SDS011;33812;46.480;6.834;2023-04-30T08:18:44;10.90;;;3.35;;
48034;SDS011;33812;46.480;6.834;2023-04-30T08:22:45;14.52;;;3.10;;
48034;SDS011;33812;46.480;6.834;2023-04-30T08:26:47;6.05;;;2.72;;
48034;SDS011;33812;46.480;6.834;2023-04-30T08:30:50;7.35;;;3.25;;
48034;SDS011;33812;46.480;6.834;2023-04-30T08:34:52;11.00;;;3.47;;
48034;SDS011;33812;46.480;6.834;2023-04-30T08:38:54;7.80;;;2.80;;
48034;SDS011;33812;46.480;6.834;2023-04-30T08:42:59;6.13;;;3.03;;
48034;SDS011;33812;46.480;6.834;2023-04-30T08:47:08;9.45;;;3.20;;
48034;SDS011;33812;46.480;6.834;2023-04-30T08:51:12;14.75;;;3.80;;
48034;SDS011;33812;46.480;6.834;2023-04-30T08:55:14;11.70;;;2.70;;
48034;SDS011;33812;46.480;6.834;2023-04-30T08:59:16;13.43;;;3.97;;
48034;SDS011;33812;46.480;6.834;2023-04-30T09:03:20;13.07;;;4.15;;
48034;SDS011;33812;46.480;6.834;2023-04-30T09:07:23;7.30;;;3.10;;
48034;SDS011;33812;46.480;6.834;2023-04-30T09:11:30;9.45;;;3.13;;
48034;SDS011;33812;46.480;6.834;2023-04-30T09:15:32;7.53;;;2.95;;
48034;SDS011;33812;46.480;6.834;2023-04-30T09:19:40;12.70;;;4.32;;
48034;SDS011;33812;46.480;6.834;2023-04-30T09:23:54;11.40;;;3.78;;
48034;SDS011;33812;46.480;6.834;2023-04-30T09:28:05;9.45;;;3.80;;
48034;SDS011;33812;46.480;6.834;2023-04-30T09:32:08;12.93;;;3.05;;
48034;SDS011;33812;46.480;6.834;2023-04-30T09:36:12;26.20;;;4.45;;
48034;SDS011;33812;46.480;6.834;2023-04-30T09:40:14;15.45;;;2.65;;
48034;SDS011;33812;46.480;6.834;2023-04-30T09:44:25;15.25;;;3.40;;
48034;SDS011;33812;46.480;6.834;2023-04-30T09:48:28;6.25;;;2.25;;
48034;SDS011;33812;46.480;6.834;2023-04-30T09:52:32;8.60;;;2.92;;
48034;SDS011;33812;46.480;6.834;2023-04-30T09:56:33;11.13;;;2.90;;
48034;SDS011;33812;46.480;6.834;2023-04-30T10:00:38;15.43;;;3.40;;
48034;SDS011;33812;46.480;6.834;2023-04-30T10:04:41;6.20;;;2.05;;
48034;SDS011;33812;46.480;6.834;2023-04-30T10:08:49;10.40;;;2.75;;
48034;SDS011;33812;46.480;6.834;2023-04-30T10:12:53;12.80;;;3.28;;
48034;SDS011;33812;46.480;6.834;2023-04-30T10:17:02;8.07;;;3.15;;
48034;SDS011;33812;46.480;6.834;2023-04-30T10:21:11;10.73;;;3.47;;
48034;SDS011;33812;46.480;6.834;2023-04-30T10:25:16;15.03;;;3.10;;
48034;SDS011;33812;46.480;6.834;2023-04-30T10:29:18;14.10;;;2.67;;
48034;SDS011;33812;46.480;6.834;2023-04-30T10:33:22;7.43;;;2.65;;
48034;SDS011;33812;46.480;6.834;2023-04-30T10:41:41;8.25;;;2.95;;
48034;SDS011;33812;46.480;6.834;2023-04-30T10:45:48;11.02;;;3.28;;
48034;SDS011;33812;46.480;6.834;2023-04-30T10:49:51;12.40;;;2.33;;
48034;SDS011;33812;46.480;6.834;2023-04-30T10:53:53;8.57;;;2.58;;
48034;SDS011;33812;46.480;6.834;2023-04-30T10:57:58;7.32;;;2.70;;
48034;SDS011;33812;46.480;6.834;2023-04-30T11:02:00;10.52;;;3.08;;
48034;SDS011;33812;46.480;6.834;2023-04-30T11:06:11;13.07;;;3.03;;
48034;SDS011;33812;46.480;6.834;2023-04-30T11:10:20;14.52;;;3.38;;
48034;SDS011;33812;46.480;6.834;2023-04-30T11:14:24;8.57;;;2.67;;
48034;SDS011;33812;46.480;6.834;2023-04-30T11:18:26;6.63;;;3.30;;
48034;SDS011;33812;46.480;6.834;2023-04-30T11:22:28;11.05;;;2.78;;
48034;SDS011;33812;46.480;6.834;2023-04-30T11:31:07;17.98;;;2.63;;
48034;SDS011;33812;46.480;6.834;2023-04-30T11:35:08;18.77;;;3.53;;
48034;SDS011;33812;46.480;6.834;2023-04-30T11:39:14;11.60;;;2.38;;
48034;SDS011;33812;46.480;6.834;2023-04-30T11:43:21;8.98;;;2.30;;
48034;SDS011;33812;46.480;6.834;2023-04-30T11:47:25;7.20;;;2.33;;
48034;SDS011;33812;46.480;6.834;2023-04-30T11:51:28;16.77;;;3.13;;
48034;SDS011;33812;46.480;6.834;2023-04-30T11:55:32;10.57;;;2.40;;
48034;SDS011;33812;46.480;6.834;2023-04-30T11:59:38;6.90;;;2.25;;
48034;SDS011;33812;46.480;6.834;2023-04-30T12:03:44;14.93;;;3.30;;
48034;SDS011;33812;46.480;6.834;2023-04-30T12:07:48;11.77;;;2.55;;
48034;SDS011;33812;46.480;6.834;2023-04-30T12:11:51;15.18;;;3.15;;
48034;SDS011;33812;46.480;6.834;2023-04-30T12:15:56;10.10;;;2.15;;
48034;SDS011;33812;46.480;6.834;2023-04-30T12:20:00;10.55;;;2.28;;
48034;SDS011;33812;46.480;6.834;2023-04-30T12:24:04;12.25;;;2.78;;
48034;SDS011;33812;46.480;6.834;2023-04-30T12:28:06;9.25;;;2.15;;
48034;SDS011;33812;46.480;6.834;2023-04-30T12:32:08;12.13;;;2.83;;
48034;SDS011;33812;46.480;6.834;2023-04-30T12:36:17;7.40;;;1.88;;
48034;SDS011;33812;46.480;6.834;2023-04-30T12:40:19;11.38;;;2.28;;
48034;SDS011;33812;46.480;6.834;2023-04-30T12:44:27;8.35;;;1.95;;
48034;SDS011;33812;46.480;6.834;2023-04-30T12:48:28;14.45;;;2.10;;
48034;SDS011;33812;46.480;6.834;2023-04-30T12:52:32;7.60;;;2.08;;
48034;SDS011;33812;46.480;6.834;2023-04-30T12:56:33;12.75;;;2.35;;
48034;SDS011;33812;46.480;6.834;2023-04-30T13:00:45;4.75;;;1.70;;
48034;SDS011;33812;46.480;6.834;2023-04-30T13:04:48;9.45;;;2.40;;
48034;SDS011;33812;46.480;6.834;2023-04-30T13:08:51;12.30;;;2.78;;
48034;SDS011;33812;46.480;6.834;2023-04-30T13:12:53;8.23;;;2.45;;
48034;SDS011;33812;46.480;6.834;2023-04-30T13:16:55;13.32;;;2.90;;
48034;SDS011;33812;46.480;6.834;2023-04-30T13:20:56;11.23;;;2.08;;
48034;SDS011;33812;46.480;6.834;2023-04-30T13:25:00;8.27;;;2.28;;
48034;SDS011;33812;46.480;6.834;2023-04-30T13:29:02;6.18;;;2.00;;
48034;SDS011;33812;46.480;6.834;2023-04-30T13:33:04;2.30;;;1.40;;
48034;SDS011;33812;46.480;6.834;2023-04-30T13:37:06;11.68;;;2.75;;
48034;SDS011;33812;46.480;6.834;2023-04-30T13:41:09;4.95;;;1.60;;
48034;SDS011;33812;46.480;6.834;2023-04-30T13:45:11;13.60;;;2.67;;
48034;SDS011;33812;46.480;6.834;2023-04-30T13:49:13;10.70;;;2.60;;
48034;SDS011;33812;46.480;6.834;2023-04-30T13:53:15;6.78;;;2.00;;
48034;SDS011;33812;46.480;6.834;2023-04-30T13:57:18;4.68;;;1.65;;
48034;SDS011;33812;46.480;6.834;2023-04-30T14:01:20;4.30;;;1.77;;
48034;SDS011;33812;46.480;6.834;2023-04-30T14:05:21;16.17;;;3.22;;
48034;SDS011;33812;46.480;6.834;2023-04-30T14:09:23;3.90;;;1.77;;
48034;SDS011;33812;46.480;6.834;2023-04-30T14:13:27;5.68;;;1.73;;
48034;SDS011;33812;46.480;6.834;2023-04-30T14:17:29;9.57;;;2.20;;
48034;SDS011;33812;46.480;6.834;2023-04-30T14:21:31;14.10;;;2.92;;
48034;SDS011;33812;46.480;6.834;2023-04-30T14:25:33;11.30;;;2.58;;
48034;SDS011;33812;46.480;6.834;2023-04-30T14:29:36;6.68;;;2.13;;
48034;SDS011;33812;46.480;6.834;2023-04-30T14:33:38;17.65;;;1.95;;
48034;SDS011;33812;46.480;6.834;2023-04-30T14:37:40;3.67;;;2.85;;
48034;SDS011;33812;46.480;6.834;2023-04-30T14:41:48;9.27;;;2.97;;
48034;SDS011;33812;46.480;6.834;2023-04-30T14:45:52;8.52;;;2.40;;
48034;SDS011;33812;46.480;6.834;2023-04-30T14:49:53;11.95;;;2.70;;
48034;SDS011;33812;46.480;6.834;2023-04-30T14:53:59;10.07;;;2.95;;
48034;SDS011;33812;46.480;6.834;2023-04-30T14:58:01;65.30;;;12.73;;
48034;SDS011;33812;46.480;6.834;2023-04-30T15:02:05;39.17;;;7.53;;
48034;SDS011;33812;46.480;6.834;2023-04-30T15:06:12;60.92;;;12.55;;
48034;SDS011;33812;46.480;6.834;2023-04-30T15:10:15;54.38;;;12.40;;
48034;SDS011;33812;46.480;6.834;2023-04-30T15:14:17;49.40;;;12.80;;
48034;SDS011;33812;46.480;6.834;2023-04-30T15:18:21;46.85;;;10.30;;
48034;SDS011;33812;46.480;6.834;2023-04-30T15:22:24;56.33;;;11.75;;
48034;SDS011;33812;46.480;6.834;2023-04-30T15:26:27;40.72;;;10.15;;
48034;SDS011;33812;46.480;6.834;2023-04-30T15:30:29;54.03;;;11.10;;
48034;SDS011;33812;46.480;6.834;2023-04-30T15:34:35;33.50;;;9.05;;
48034;SDS011;33812;46.480;6.834;2023-04-30T15:38:40;29.95;;;7.43;;
48034;SDS011;33812;46.480;6.834;2023-04-30T15:42:42;31.77;;;7.45;;
48034;SDS011;33812;46.480;6.834;2023-04-30T15:46:44;19.80;;;6.70;;
48034;SDS011;33812;46.480;6.834;2023-04-30T15:54:55;23.58;;;6.03;;
48034;SDS011;33812;46.480;6.834;2023-04-30T15:58:57;21.90;;;4.88;;
48034;SDS011;33812;46.480;6.834;2023-04-30T16:02:59;20.67;;;5.60;;
48034;SDS011;33812;46.480;6.834;2023-04-30T16:07:02;23.58;;;6.30;;
48034;SDS011;33812;46.480;6.834;2023-04-30T16:11:04;17.13;;;5.47;;
48034;SDS011;33812;46.480;6.834;2023-04-30T16:15:09;18.60;;;5.82;;
48034;SDS011;33812;46.480;6.834;2023-04-30T16:19:12;18.38;;;5.70;;
48034;SDS011;33812;46.480;6.834;2023-04-30T16:23:18;21.92;;;5.53;;
48034;SDS011;33812;46.480;6.834;2023-04-30T16:27:20;23.25;;;5.95;;
48034;SDS011;33812;46.480;6.834;2023-04-30T16:31:23;13.20;;;4.55;;
48034;SDS011;33812;46.480;6.834;2023-04-30T16:35:25;19.35;;;4.53;;
48034;SDS011;33812;46.480;6.834;2023-04-30T16:39:42;19.05;;;4.18;;
48034;SDS011;33812;46.480;6.834;2023-04-30T16:43:47;10.27;;;3.42;;
48034;SDS011;33812;46.480;6.834;2023-04-30T16:47:50;22.40;;;5.43;;
48034;SDS011;33812;46.480;6.834;2023-04-30T16:51:52;15.82;;;3.92;;
48034;SDS011;33812;46.480;6.834;2023-04-30T16:56:11;11.02;;;3.00;;
48034;SDS011;33812;46.480;6.834;2023-04-30T17:00:13;20.05;;;3.05;;
48034;SDS011;33812;46.480;6.834;2023-04-30T17:04:15;8.75;;;3.13;;
48034;SDS011;33812;46.480;6.834;2023-04-30T17:08:17;7.07;;;2.97;;
48034;SDS011;33812;46.480;6.834;2023-04-30T17:12:30;8.80;;;3.45;;
48034;SDS011;33812;46.480;6.834;2023-04-30T17:16:33;12.73;;;3.17;;
48034;SDS011;33812;46.480;6.834;2023-04-30T17:20:35;13.80;;;2.80;;
48034;SDS011;33812;46.480;6.834;2023-04-30T17:24:37;16.13;;;3.90;;
48034;SDS011;33812;46.480;6.834;2023-04-30T17:28:40;12.95;;;5.40;;
48034;SDS011;33812;46.480;6.834;2023-04-30T17:36:56;10.60;;;3.72;;
48034;SDS011;33812;46.480;6.834;2023-04-30T17:40:58;9.82;;;3.40;;
48034;SDS011;33812;46.480;6.834;2023-04-30T17:45:01;16.25;;;4.13;;
48034;SDS011;33812;46.480;6.834;2023-04-30T17:49:03;17.73;;;4.95;;
48034;SDS011;33812;46.480;6.834;2023-04-30T17:53:06;58.97;;;12.30;;
48034;SDS011;33812;46.480;6.834;2023-04-30T17:57:07;27.80;;;6.97;;
48034;SDS011;33812;46.480;6.834;2023-04-30T18:01:10;53.00;;;10.27;;
48034;SDS011;33812;46.480;6.834;2023-04-30T18:05:12;21.40;;;5.35;;
48034;SDS011;33812;46.480;6.834;2023-04-30T18:09:14;14.15;;;4.47;;
48034;SDS011;33812;46.480;6.834;2023-04-30T18:13:16;17.67;;;5.50;;
48034;SDS011;33812;46.480;6.834;2023-04-30T18:17:19;14.55;;;4.60;;
48034;SDS011;33812;46.480;6.834;2023-04-30T18:21:21;25.55;;;6.43;;
48034;SDS011;33812;46.480;6.834;2023-04-30T18:25:22;13.88;;;4.47;;
48034;SDS011;33812;46.480;6.834;2023-04-30T18:29:24;16.27;;;5.25;;
48034;SDS011;33812;46.480;6.834;2023-04-30T18:33:27;18.30;;;5.10;;
48034;SDS011;33812;46.480;6.834;2023-04-30T18:37:29;11.38;;;4.63;;
48034;SDS011;33812;46.480;6.834;2023-04-30T18:41:32;13.23;;;4.22;;
48034;SDS011;33812;46.480;6.834;2023-04-30T18:45:34;10.38;;;3.28;;
48034;SDS011;33812;46.480;6.834;2023-04-30T18:49:41;7.03;;;2.90;;
48034;SDS011;33812;46.480;6.834;2023-04-30T18:53:43;18.90;;;4.03;;
48034;SDS011;33812;46.480;6.834;2023-04-30T18:57:47;12.20;;;3.65;;
48034;SDS011;33812;46.480;6.834;2023-04-30T19:01:49;15.27;;;3.47;;
48034;SDS011;33812;46.480;6.834;2023-04-30T19:06:01;8.25;;;2.95;;
48034;SDS011;33812;46.480;6.834;2023-04-30T19:10:04;11.05;;;3.15;;
48034;SDS011;33812;46.480;6.834;2023-04-30T19:14:06;32.90;;;5.45;;
48034;SDS011;33812;46.480;6.834;2023-04-30T19:18:07;20.77;;;4.05;;
48034;SDS011;33812;46.480;6.834;2023-04-30T19:22:15;13.35;;;3.28;;
48034;SDS011;33812;46.480;6.834;2023-04-30T19:26:18;11.90;;;3.83;;
48034;SDS011;33812;46.480;6.834;2023-04-30T19:30:21;14.32;;;3.00;;
48034;SDS011;33812;46.480;6.834;2023-04-30T19:34:22;12.95;;;3.28;;
48034;SDS011;33812;46.480;6.834;2023-04-30T19:38:27;14.48;;;3.53;;
48034;SDS011;33812;46.480;6.834;2023-04-30T19:42:29;9.95;;;3.17;;
48034;SDS011;33812;46.480;6.834;2023-04-30T19:46:32;27.48;;;5.32;;
48034;SDS011;33812;46.480;6.834;2023-04-30T19:50:34;10.90;;;2.85;;
48034;SDS011;33812;46.480;6.834;2023-04-30T19:54:42;9.05;;;2.40;;
48034;SDS011;33812;46.480;6.834;2023-04-30T19:58:47;7.97;;;2.40;;
48034;SDS011;33812;46.480;6.834;2023-04-30T20:02:49;10.60;;;2.90;;
48034;SDS011;33812;46.480;6.834;2023-04-30T20:06:52;10.63;;;2.30;;
48034;SDS011;33812;46.480;6.834;2023-04-30T20:10:57;6.18;;;2.20;;
48034;SDS011;33812;46.480;6.834;2023-04-30T20:15:00;7.00;;;2.72;;
48034;SDS011;33812;46.480;6.834;2023-04-30T20:19:02;13.23;;;2.60;;
48034;SDS011;33812;46.480;6.834;2023-04-30T20:23:12;12.50;;;2.50;;
48034;SDS011;33812;46.480;6.834;2023-04-30T20:27:16;22.50;;;3.25;;
48034;SDS011;33812;46.480;6.834;2023-04-30T20:31:18;18.10;;;3.55;;
48034;SDS011;33812;46.480;6.834;2023-04-30T20:35:20;10.40;;;3.05;;
48034;SDS011;33812;46.480;6.834;2023-04-30T20:39:22;10.80;;;2.63;;
48034;SDS011;33812;46.480;6.834;2023-04-30T20:43:28;13.77;;;3.53;;
48034;SDS011;33812;46.480;6.834;2023-04-30T20:47:29;11.93;;;3.03;;
48034;SDS011;33812;46.480;6.834;2023-04-30T20:51:31;15.85;;;2.78;;
48034;SDS011;33812;46.480;6.834;2023-04-30T20:55:33;11.40;;;3.05;;
48034;SDS011;33812;46.480;6.834;2023-04-30T20:59:36;9.05;;;2.80;;
48034;SDS011;33812;46.480;6.834;2023-04-30T21:03:38;15.95;;;3.40;;
48034;SDS011;33812;46.480;6.834;2023-04-30T21:07:39;6.00;;;2.05;;
48034;SDS011;33812;46.480;6.834;2023-04-30T21:11:42;23.88;;;4.88;;
48034;SDS011;33812;46.480;6.834;2023-04-30T21:15:50;10.20;;;2.60;;
48034;SDS011;33812;46.480;6.834;2023-04-30T21:19:53;11.32;;;2.92;;
48034;SDS011;33812;46.480;6.834;2023-04-30T21:23:55;17.45;;;3.45;;
48034;SDS011;33812;46.480;6.834;2023-04-30T21:28:00;16.15;;;3.50;;
48034;SDS011;33812;46.480;6.834;2023-04-30T21:32:06;12.88;;;2.85;;
48034;SDS011;33812;46.480;6.834;2023-04-30T21:36:08;19.17;;;4.05;;
48034;SDS011;33812;46.480;6.834;2023-04-30T21:40:09;17.90;;;4.05;;
48034;SDS011;33812;46.480;6.834;2023-04-30T21:44:12;18.05;;;4.03;;
48034;SDS011;33812;46.480;6.834;2023-04-30T21:48:15;16.23;;;3.33;;
48034;SDS011;33812;46.480;6.834;2023-04-30T21:52:17;22.73;;;4.55;;
48034;SDS011;33812;46.480;6.834;2023-04-30T21:56:19;13.40;;;3.45;;
48034;SDS011;33812;46.480;6.834;2023-04-30T22:00:21;12.15;;;3.05;;
48034;SDS011;33812;46.480;6.834;2023-04-30T22:04:24;19.00;;;3.72;;
48034;SDS011;33812;46.480;6.834;2023-04-30T22:08:26;18.88;;;3.47;;
48034;SDS011;33812;46.480;6.834;2023-04-30T22:12:28;18.88;;;3.65;;
48034;SDS011;33812;46.480;6.834;2023-04-30T22:16:30;14.00;;;2.97;;
48034;SDS011;33812;46.480;6.834;2023-04-30T22:20:34;12.90;;;3.35;;
48034;SDS011;33812;46.480;6.834;2023-04-30T22:24:36;11.35;;;2.97;;
48034;SDS011;33812;46.480;6.834;2023-04-30T22:28:38;17.40;;;3.22;;
48034;SDS011;33812;46.480;6.834;2023-04-30T22:32:39;12.75;;;3.40;;
48034;SDS011;33812;46.480;6.834;2023-04-30T22:36:43;12.50;;;2.90;;
48034;SDS011;33812;46.480;6.834;2023-04-30T22:40:45;12.30;;;2.97;;
48034;SDS011;33812;46.480;6.834;2023-04-30T22:44:47;12.63;;;2.97;;
48034;SDS011;33812;46.480;6.834;2023-04-30T22:48:50;21.63;;;4.57;;
48034;SDS011;33812;46.480;6.834;2023-04-30T22:52:54;7.80;;;2.53;;
48034;SDS011;33812;46.480;6.834;2023-04-30T22:56:56;9.57;;;2.90;;
48034;SDS011;33812;46.480;6.834;2023-04-30T23:00:59;11.60;;;2.88;;
48034;SDS011;33812;46.480;6.834;2023-04-30T23:05:01;13.55;;;3.20;;
48034;SDS011;33812;46.480;6.834;2023-04-30T23:09:04;19.65;;;3.83;;
48034;SDS011;33812;46.480;6.834;2023-04-30T23:13:08;15.85;;;3.63;;
48034;SDS011;33812;46.480;6.834;2023-04-30T23:17:10;9.45;;;2.83;;
48034;SDS011;33812;46.480;6.834;2023-04-30T23:21:11;10.73;;;2.85;;
48034;SDS011;33812;46.480;6.834;2023-04-30T23:25:15;12.13;;;2.88;;
48034;SDS011;33812;46.480;6.834;2023-04-30T23:29:17;10.35;;;2.65;;
48034;SDS011;33812;46.480;6.834;2023-04-30T23:33:19;12.65;;;3.08;;
48034;SDS011;33812;46.480;6.834;2023-04-30T23:37:23;13.40;;;2.80;;
48034;SDS011;33812;46.480;6.834;2023-04-30T23:41:27;17.45;;;3.33;;
48034;SDS011;33812;46.480;6.834;2023-04-30T23:45:28;14.25;;;2.78;;
48034;SDS011;33812;46.480;6.834;2023-04-30T23:49:30;13.00;;;3.50;;
48034;SDS011;33812;46.480;6.834;2023-04-30T23:53:33;16.92;;;3.38;;
48034;SDS011;33812;46.480;6.834;2023-04-30T23:57:37;7.55;;;2.25;;
